sensor_id;sensor_type;location;lat;lon;timestamp;temperature;humidity
28532;DHT22;15738;44.860;10.066;2023-08-12T00:01:04;23.70;99.90
28532;DHT22;15738;44.860;10.066;2023-08-12T00:03:51;23.70;99.90
28532;DHT22;15738;44.860;10.066;2023-08-12T00:06:37;23.80;99.90
28532;DHT22;15738;44.860;10.066;2023-08-12T00:09:23;23.70;99.90
28532;DHT22;15738;44.860;10.066;2023-08-12T00:12:09;23.70;99.90
28532;DHT22;15738;44.860;10.066;2023-08-12T00:14:55;23.70;99.90
28532;DHT22;15738;44.860;10.066;2023-08-12T00:17:41;23.80;99.90
28532;DHT22;15738;44.860;10.066;2023-08-12T00:20:27;23.80;99.90
28532;DHT22;15738;44.860;10.066;2023-08-12T00:23:13;23.50;99.90
28532;DHT22;15738;44.860;10.066;2023-08-12T00:28:48;23.30;99.90
28532;DHT22;15738;44.860;10.066;2023-08-12T00:31:34;23.50;99.90
28532;DHT22;15738;44.860;10.066;2023-08-12T00:37:07;23.40;99.90
28532;DHT22;15738;44.860;10.066;2023-08-12T00:39:53;23.70;99.90
28532;DHT22;15738;44.860;10.066;2023-08-12T00:48:14;22.90;99.90
28532;DHT22;15738;44.860;10.066;2023-08-12T00:51:01;23.70;99.90
28532;DHT22;15738;44.860;10.066;2023-08-12T00:53:48;23.00;99.90
28532;DHT22;15738;44.860;10.066;2023-08-12T00:56:35;23.00;99.90
28532;DHT22;15738;44.860;10.066;2023-08-12T00:59:22;23.20;99.90
28532;DHT22;15738;44.860;10.066;2023-08-12T01:02:09;23.20;99.90
28532;DHT22;15738;44.860;10.066;2023-08-12T01:04:55;23.20;99.90
28532;DHT22;15738;44.860;10.066;2023-08-12T01:07:42;23.20;99.90
28532;DHT22;15738;44.860;10.066;2023-08-12T01:10:35;23.30;99.90
28532;DHT22;15738;44.860;10.066;2023-08-12T01:13:35;23.30;99.90
28532;DHT22;15738;44.860;10.066;2023-08-12T01:16:23;23.30;99.90
28532;DHT22;15738;44.860;10.066;2023-08-12T01:19:16;23.30;99.90
28532;DHT22;15738;44.860;10.066;2023-08-12T01:22:11;23.20;99.90
28532;DHT22;15738;44.860;10.066;2023-08-12T01:24:58;23.30;99.90
28532;DHT22;15738;44.860;10.066;2023-08-12T01:27:43;23.30;99.90
28532;DHT22;15738;44.860;10.066;2023-08-12T01:30:29;23.30;99.90
28532;DHT22;15738;44.860;10.066;2023-08-12T01:33:29;23.30;99.90
28532;DHT22;15738;44.860;10.066;2023-08-12T01:36:19;23.20;99.90
28532;DHT22;15738;44.860;10.066;2023-08-12T01:39:09;24.00;99.90
28532;DHT22;15738;44.860;10.066;2023-08-12T01:41:57;23.20;99.90
28532;DHT22;15738;44.860;10.066;2023-08-12T01:44:44;23.70;99.90
28532;DHT22;15738;44.860;10.066;2023-08-12T01:47:30;23.10;99.90
28532;DHT22;15738;44.860;10.066;2023-08-12T01:50:16;23.10;99.90
28532;DHT22;15738;44.860;10.066;2023-08-12T01:53:02;23.20;99.90
28532;DHT22;15738;44.860;10.066;2023-08-12T01:55:49;23.00;99.90
28532;DHT22;15738;44.860;10.066;2023-08-12T01:58:36;22.80;99.90
28532;DHT22;15738;44.860;10.066;2023-08-12T02:01:22;22.70;99.90
28532;DHT22;15738;44.860;10.066;2023-08-12T02:04:08;22.70;99.90
28532;DHT22;15738;44.860;10.066;2023-08-12T02:06:55;22.60;99.90
28532;DHT22;15738;44.860;10.066;2023-08-12T02:09:40;22.60;99.90
28532;DHT22;15738;44.860;10.066;2023-08-12T02:15:12;22.70;99.90
28532;DHT22;15738;44.860;10.066;2023-08-12T02:17:58;22.50;99.90
28532;DHT22;15738;44.860;10.066;2023-08-12T02:20:47;22.40;99.90
28532;DHT22;15738;44.860;10.066;2023-08-12T02:26:20;22.40;99.90
28532;DHT22;15738;44.860;10.066;2023-08-12T02:31:52;22.60;99.90
28532;DHT22;15738;44.860;10.066;2023-08-12T02:34:38;22.60;99.90
28532;DHT22;15738;44.860;10.066;2023-08-12T02:37:28;22.60;99.90
28532;DHT22;15738;44.860;10.066;2023-08-12T02:40:13;22.60;99.90
28532;DHT22;15738;44.860;10.066;2023-08-12T02:42:59;22.60;99.90
28532;DHT22;15738;44.860;10.066;2023-08-12T02:45:45;22.60;99.90
28532;DHT22;15738;44.860;10.066;2023-08-12T02:48:32;22.60;99.90
28532;DHT22;15738;44.860;10.066;2023-08-12T02:51:17;22.60;99.90
28532;DHT22;15738;44.860;10.066;2023-08-12T02:54:04;23.00;99.90
28532;DHT22;15738;44.860;10.066;2023-08-12T02:56:50;22.00;99.90
28532;DHT22;15738;44.860;10.066;2023-08-12T02:59:36;22.40;99.90
28532;DHT22;15738;44.860;10.066;2023-08-12T03:02:22;22.10;99.90
28532;DHT22;15738;44.860;10.066;2023-08-12T03:05:08;22.30;99.90
28532;DHT22;15738;44.860;10.066;2023-08-12T03:07:54;22.50;99.90
28532;DHT22;15738;44.860;10.066;2023-08-12T03:10:41;22.50;99.90
28532;DHT22;15738;44.860;10.066;2023-08-12T03:13:30;22.50;99.90
28532;DHT22;15738;44.860;10.066;2023-08-12T03:16:17;22.40;99.90
28532;DHT22;15738;44.860;10.066;2023-08-12T03:21:51;22.30;99.90
28532;DHT22;15738;44.860;10.066;2023-08-12T03:24:39;22.80;99.90
28532;DHT22;15738;44.860;10.066;2023-08-12T03:27:25;22.40;99.90
28532;DHT22;15738;44.860;10.066;2023-08-12T03:30:11;22.40;99.90
28532;DHT22;15738;44.860;10.066;2023-08-12T03:32:59;22.30;99.90
28532;DHT22;15738;44.860;10.066;2023-08-12T03:35:49;22.30;99.90
28532;DHT22;15738;44.860;10.066;2023-08-12T03:38:36;22.30;99.90
28532;DHT22;15738;44.860;10.066;2023-08-12T03:41:22;22.30;99.90
28532;DHT22;15738;44.860;10.066;2023-08-12T03:44:09;22.30;99.90
28532;DHT22;15738;44.860;10.066;2023-08-12T03:46:55;22.20;99.90
28532;DHT22;15738;44.860;10.066;2023-08-12T03:49:41;22.20;99.90
28532;DHT22;15738;44.860;10.066;2023-08-12T03:52:28;22.20;99.90
28532;DHT22;15738;44.860;10.066;2023-08-12T03:55:14;22.20;99.90
28532;DHT22;15738;44.860;10.066;2023-08-12T03:58:01;22.10;99.90
28532;DHT22;15738;44.860;10.066;2023-08-12T04:00:49;22.00;99.90
28532;DHT22;15738;44.860;10.066;2023-08-12T04:03:35;22.00;99.90
28532;DHT22;15738;44.860;10.066;2023-08-12T04:06:21;22.00;99.90
28532;DHT22;15738;44.860;10.066;2023-08-12T04:09:07;21.90;99.90
28532;DHT22;15738;44.860;10.066;2023-08-12T04:11:53;21.70;99.90
28532;DHT22;15738;44.860;10.066;2023-08-12T04:14:39;21.80;99.90
28532;DHT22;15738;44.860;10.066;2023-08-12T04:17:27;21.90;99.90
28532;DHT22;15738;44.860;10.066;2023-08-12T04:20:12;21.90;99.90
28532;DHT22;15738;44.860;10.066;2023-08-12T04:22:59;21.80;99.90
28532;DHT22;15738;44.860;10.066;2023-08-12T04:25:48;21.90;99.90
28532;DHT22;15738;44.860;10.066;2023-08-12T04:28:36;21.50;99.90
28532;DHT22;15738;44.860;10.066;2023-08-12T04:31:22;21.80;99.90
28532;DHT22;15738;44.860;10.066;2023-08-12T04:34:09;21.40;99.90
28532;DHT22;15738;44.860;10.066;2023-08-12T04:36:55;21.70;99.90
28532;DHT22;15738;44.860;10.066;2023-08-12T04:39:41;22.20;99.90
28532;DHT22;15738;44.860;10.066;2023-08-12T04:42:29;21.90;99.90
28532;DHT22;15738;44.860;10.066;2023-08-12T04:45:15;21.60;99.90
28532;DHT22;15738;44.860;10.066;2023-08-12T04:48:02;21.80;99.90
28532;DHT22;15738;44.860;10.066;2023-08-12T04:50:50;22.80;99.90
28532;DHT22;15738;44.860;10.066;2023-08-12T04:53:36;22.80;99.90
28532;DHT22;15738;44.860;10.066;2023-08-12T04:56:23;21.80;99.90
28532;DHT22;15738;44.860;10.066;2023-08-12T04:59:10;21.90;99.90
28532;DHT22;15738;44.860;10.066;2023-08-12T05:01:56;22.10;99.90
28532;DHT22;15738;44.860;10.066;2023-08-12T05:04:52;22.10;99.90
28532;DHT22;15738;44.860;10.066;2023-08-12T05:07:39;22.20;99.90
28532;DHT22;15738;44.860;10.066;2023-08-12T05:10:26;22.30;99.90
28532;DHT22;15738;44.860;10.066;2023-08-12T05:21:31;24.30;99.90
28532;DHT22;15738;44.860;10.066;2023-08-12T05:27:03;26.20;99.90
28532;DHT22;15738;44.860;10.066;2023-08-12T05:29:50;26.10;99.90
28532;DHT22;15738;44.860;10.066;2023-08-12T05:32:36;27.00;99.90
28532;DHT22;15738;44.860;10.066;2023-08-12T05:35:22;27.70;99.90
28532;DHT22;15738;44.860;10.066;2023-08-12T05:38:07;28.10;99.90
28532;DHT22;15738;44.860;10.066;2023-08-12T05:40:53;28.40;99.90
28532;DHT22;15738;44.860;10.066;2023-08-12T05:43:39;28.80;99.90
28532;DHT22;15738;44.860;10.066;2023-08-12T05:46:25;29.10;99.90
28532;DHT22;15738;44.860;10.066;2023-08-12T05:49:11;28.80;99.90
28532;DHT22;15738;44.860;10.066;2023-08-12T05:51:57;28.70;99.90
28532;DHT22;15738;44.860;10.066;2023-08-12T05:54:43;28.10;99.90
28532;DHT22;15738;44.860;10.066;2023-08-12T05:57:28;27.50;99.90
28532;DHT22;15738;44.860;10.066;2023-08-12T06:00:14;27.10;99.90
28532;DHT22;15738;44.860;10.066;2023-08-12T06:03:00;26.70;99.90
28532;DHT22;15738;44.860;10.066;2023-08-12T06:05:46;26.50;99.90
28532;DHT22;15738;44.860;10.066;2023-08-12T06:08:32;26.20;99.90
28532;DHT22;15738;44.860;10.066;2023-08-12T06:11:18;25.80;99.90
28532;DHT22;15738;44.860;10.066;2023-08-12T06:14:04;25.20;99.90
28532;DHT22;15738;44.860;10.066;2023-08-12T06:16:50;25.10;99.90
28532;DHT22;15738;44.860;10.066;2023-08-12T06:19:36;25.20;99.90
28532;DHT22;15738;44.860;10.066;2023-08-12T06:22:21;25.40;99.90
28532;DHT22;15738;44.860;10.066;2023-08-12T06:25:07;25.40;99.90
28532;DHT22;15738;44.860;10.066;2023-08-12T06:27:53;25.30;99.90
28532;DHT22;15738;44.860;10.066;2023-08-12T06:30:39;25.50;99.90
28532;DHT22;15738;44.860;10.066;2023-08-12T06:33:25;25.80;99.90
28532;DHT22;15738;44.860;10.066;2023-08-12T06:36:11;25.80;99.90
28532;DHT22;15738;44.860;10.066;2023-08-12T06:38:56;25.90;99.90
28532;DHT22;15738;44.860;10.066;2023-08-12T06:41:42;26.20;99.90
28532;DHT22;15738;44.860;10.066;2023-08-12T06:44:29;26.40;99.90
28532;DHT22;15738;44.860;10.066;2023-08-12T06:47:15;26.60;99.90
28532;DHT22;15738;44.860;10.066;2023-08-12T06:50:01;26.80;99.90
28532;DHT22;15738;44.860;10.066;2023-08-12T06:58:19;27.90;99.90
28532;DHT22;15738;44.860;10.066;2023-08-12T07:01:05;28.10;99.90
28532;DHT22;15738;44.860;10.066;2023-08-12T07:03:51;28.00;99.90
28532;DHT22;15738;44.860;10.066;2023-08-12T07:06:37;28.10;99.90
28532;DHT22;15738;44.860;10.066;2023-08-12T07:09:23;28.20;99.90
28532;DHT22;15738;44.860;10.066;2023-08-12T07:14:56;28.30;99.90
28532;DHT22;15738;44.860;10.066;2023-08-12T07:17:41;28.40;99.90
28532;DHT22;15738;44.860;10.066;2023-08-12T07:20:27;28.60;99.90
28532;DHT22;15738;44.860;10.066;2023-08-12T07:23:13;28.70;99.90
28532;DHT22;15738;44.860;10.066;2023-08-12T07:28:45;29.00;99.90
28532;DHT22;15738;44.860;10.066;2023-08-12T07:31:31;29.30;99.90
28532;DHT22;15738;44.860;10.066;2023-08-12T07:34:16;29.20;99.90
28532;DHT22;15738;44.860;10.066;2023-08-12T07:37:02;29.30;99.90
28532;DHT22;15738;44.860;10.066;2023-08-12T07:39:48;29.30;99.90
28532;DHT22;15738;44.860;10.066;2023-08-12T07:42:34;29.10;99.90
28532;DHT22;15738;44.860;10.066;2023-08-12T07:45:21;29.20;99.90
28532;DHT22;15738;44.860;10.066;2023-08-12T07:48:08;29.30;99.90
28532;DHT22;15738;44.860;10.066;2023-08-12T07:50:57;29.10;99.90
28532;DHT22;15738;44.860;10.066;2023-08-12T07:53:43;29.10;99.90
28532;DHT22;15738;44.860;10.066;2023-08-12T07:56:29;29.30;99.90
28532;DHT22;15738;44.860;10.066;2023-08-12T07:59:15;29.60;99.90
28532;DHT22;15738;44.860;10.066;2023-08-12T08:02:01;29.70;99.90
28532;DHT22;15738;44.860;10.066;2023-08-12T08:04:47;29.30;99.90
28532;DHT22;15738;44.860;10.066;2023-08-12T08:07:35;29.30;99.90
28532;DHT22;15738;44.860;10.066;2023-08-12T08:10:21;29.40;99.90
28532;DHT22;15738;44.860;10.066;2023-08-12T08:13:07;28.50;99.90
28532;DHT22;15738;44.860;10.066;2023-08-12T08:15:52;29.10;99.90
28532;DHT22;15738;44.860;10.066;2023-08-12T08:21:25;29.20;99.90
28532;DHT22;15738;44.860;10.066;2023-08-12T08:24:12;29.30;99.90
28532;DHT22;15738;44.860;10.066;2023-08-12T08:26:58;29.70;99.90
28532;DHT22;15738;44.860;10.066;2023-08-12T08:29:44;30.00;99.90
28532;DHT22;15738;44.860;10.066;2023-08-12T08:32:29;29.50;99.90
28532;DHT22;15738;44.860;10.066;2023-08-12T08:35:15;29.80;99.90
28532;DHT22;15738;44.860;10.066;2023-08-12T08:38:01;29.80;99.90
28532;DHT22;15738;44.860;10.066;2023-08-12T08:40:49;29.80;99.90
28532;DHT22;15738;44.860;10.066;2023-08-12T08:43:36;29.50;99.90
28532;DHT22;15738;44.860;10.066;2023-08-12T08:46:22;29.40;99.90
28532;DHT22;15738;44.860;10.066;2023-08-12T08:49:09;29.60;99.90
28532;DHT22;15738;44.860;10.066;2023-08-12T08:51:56;29.70;99.90
28532;DHT22;15738;44.860;10.066;2023-08-12T08:54:44;29.60;99.90
28532;DHT22;15738;44.860;10.066;2023-08-12T08:57:31;29.70;99.90
28532;DHT22;15738;44.860;10.066;2023-08-12T09:00:32;29.50;99.90
28532;DHT22;15738;44.860;10.066;2023-08-12T09:03:18;30.50;99.90
28532;DHT22;15738;44.860;10.066;2023-08-12T09:06:05;30.30;99.90
28532;DHT22;15738;44.860;10.066;2023-08-12T09:08:51;30.60;99.90
28532;DHT22;15738;44.860;10.066;2023-08-12T09:11:39;30.10;99.90
28532;DHT22;15738;44.860;10.066;2023-08-12T09:14:26;29.90;99.90
28532;DHT22;15738;44.860;10.066;2023-08-12T09:17:11;30.60;99.90
28532;DHT22;15738;44.860;10.066;2023-08-12T09:22:43;29.80;99.90
28532;DHT22;15738;44.860;10.066;2023-08-12T09:25:30;30.00;99.90
28532;DHT22;15738;44.860;10.066;2023-08-12T09:28:16;29.50;99.90
28532;DHT22;15738;44.860;10.066;2023-08-12T09:31:02;29.40;99.90
28532;DHT22;15738;44.860;10.066;2023-08-12T09:33:48;29.50;99.90
28532;DHT22;15738;44.860;10.066;2023-08-12T09:36:34;29.80;99.90
28532;DHT22;15738;44.860;10.066;2023-08-12T09:39:20;30.20;99.90
28532;DHT22;15738;44.860;10.066;2023-08-12T09:42:06;30.20;99.90
28532;DHT22;15738;44.860;10.066;2023-08-12T09:44:52;30.00;99.90
28532;DHT22;15738;44.860;10.066;2023-08-12T09:47:37;29.70;99.90
28532;DHT22;15738;44.860;10.066;2023-08-12T09:50:27;29.80;99.90
28532;DHT22;15738;44.860;10.066;2023-08-12T09:53:13;30.10;99.90
28532;DHT22;15738;44.860;10.066;2023-08-12T09:56:07;30.50;99.90
28532;DHT22;15738;44.860;10.066;2023-08-12T09:58:54;30.30;99.90
28532;DHT22;15738;44.860;10.066;2023-08-12T10:01:41;30.30;99.90
28532;DHT22;15738;44.860;10.066;2023-08-12T10:04:32;30.00;99.90
28532;DHT22;15738;44.860;10.066;2023-08-12T10:07:20;30.10;99.90
28532;DHT22;15738;44.860;10.066;2023-08-12T10:10:06;30.10;99.90
28532;DHT22;15738;44.860;10.066;2023-08-12T10:12:52;30.30;99.90
28532;DHT22;15738;44.860;10.066;2023-08-12T10:15:39;30.40;99.90
28532;DHT22;15738;44.860;10.066;2023-08-12T10:18:26;30.20;99.90
28532;DHT22;15738;44.860;10.066;2023-08-12T10:21:14;30.50;99.90
28532;DHT22;15738;44.860;10.066;2023-08-12T10:24:00;30.60;99.90
28532;DHT22;15738;44.860;10.066;2023-08-12T10:26:46;30.50;99.90
28532;DHT22;15738;44.860;10.066;2023-08-12T10:29:32;30.50;99.90
28532;DHT22;15738;44.860;10.066;2023-08-12T10:32:18;30.60;99.90
28532;DHT22;15738;44.860;10.066;2023-08-12T10:35:04;30.50;99.90
28532;DHT22;15738;44.860;10.066;2023-08-12T10:37:50;30.40;99.90
28532;DHT22;15738;44.860;10.066;2023-08-12T10:40:37;30.30;99.90
28532;DHT22;15738;44.860;10.066;2023-08-12T10:43:26;30.10;99.90
28532;DHT22;15738;44.860;10.066;2023-08-12T10:46:22;30.20;99.90
28532;DHT22;15738;44.860;10.066;2023-08-12T10:49:09;30.30;99.90
28532;DHT22;15738;44.860;10.066;2023-08-12T10:51:56;30.30;99.90
28532;DHT22;15738;44.860;10.066;2023-08-12T10:54:42;30.20;99.90
28532;DHT22;15738;44.860;10.066;2023-08-12T10:57:37;30.30;99.90
28532;DHT22;15738;44.860;10.066;2023-08-12T11:00:28;30.20;99.90
28532;DHT22;15738;44.860;10.066;2023-08-12T11:03:15;30.10;99.90
28532;DHT22;15738;44.860;10.066;2023-08-12T11:06:01;30.00;99.90
28532;DHT22;15738;44.860;10.066;2023-08-12T11:08:58;30.10;99.90
28532;DHT22;15738;44.860;10.066;2023-08-12T11:11:44;30.30;99.90
28532;DHT22;15738;44.860;10.066;2023-08-12T11:14:30;30.50;99.90
28532;DHT22;15738;44.860;10.066;2023-08-12T11:17:16;30.30;99.90
28532;DHT22;15738;44.860;10.066;2023-08-12T11:20:04;30.60;99.90
28532;DHT22;15738;44.860;10.066;2023-08-12T11:22:51;30.60;99.90
28532;DHT22;15738;44.860;10.066;2023-08-12T11:25:39;31.10;99.90
28532;DHT22;15738;44.860;10.066;2023-08-12T11:31:11;30.70;99.90
28532;DHT22;15738;44.860;10.066;2023-08-12T11:33:57;30.80;99.90
28532;DHT22;15738;44.860;10.066;2023-08-12T11:36:44;30.60;99.90
28532;DHT22;15738;44.860;10.066;2023-08-12T11:39:30;31.00;99.90
28532;DHT22;15738;44.860;10.066;2023-08-12T11:45:03;30.80;99.90
28532;DHT22;15738;44.860;10.066;2023-08-12T11:47:49;30.60;99.90
28532;DHT22;15738;44.860;10.066;2023-08-12T11:50:39;30.70;99.90
28532;DHT22;15738;44.860;10.066;2023-08-12T11:53:25;30.90;99.90
28532;DHT22;15738;44.860;10.066;2023-08-12T11:56:11;31.00;99.90
28532;DHT22;15738;44.860;10.066;2023-08-12T11:58:57;30.90;99.90
28532;DHT22;15738;44.860;10.066;2023-08-12T12:01:46;31.00;99.90
28532;DHT22;15738;44.860;10.066;2023-08-12T12:04:34;31.00;99.90
28532;DHT22;15738;44.860;10.066;2023-08-12T12:07:23;31.00;99.90
28532;DHT22;15738;44.860;10.066;2023-08-12T12:10:13;31.00;99.90
28532;DHT22;15738;44.860;10.066;2023-08-12T12:13:03;31.00;99.90
28532;DHT22;15738;44.860;10.066;2023-08-12T12:15:50;31.20;99.90
28532;DHT22;15738;44.860;10.066;2023-08-12T12:18:35;31.10;99.90
28532;DHT22;15738;44.860;10.066;2023-08-12T12:21:21;31.10;99.90
28532;DHT22;15738;44.860;10.066;2023-08-12T12:24:09;31.10;99.90
28532;DHT22;15738;44.860;10.066;2023-08-12T12:26:56;31.10;99.90
28532;DHT22;15738;44.860;10.066;2023-08-12T12:29:42;31.10;99.90
28532;DHT22;15738;44.860;10.066;2023-08-12T12:32:28;31.10;99.90
28532;DHT22;15738;44.860;10.066;2023-08-12T12:35:14;31.00;99.90
28532;DHT22;15738;44.860;10.066;2023-08-12T12:38:01;30.90;99.90
28532;DHT22;15738;44.860;10.066;2023-08-12T12:40:47;31.00;99.90
28532;DHT22;15738;44.860;10.066;2023-08-12T12:43:33;31.20;99.90
28532;DHT22;15738;44.860;10.066;2023-08-12T12:46:18;31.20;99.90
28532;DHT22;15738;44.860;10.066;2023-08-12T12:49:05;31.40;99.90
28532;DHT22;15738;44.860;10.066;2023-08-12T12:51:50;31.50;99.90
28532;DHT22;15738;44.860;10.066;2023-08-12T12:54:37;31.60;99.90
28532;DHT22;15738;44.860;10.066;2023-08-12T12:57:22;31.50;99.90
28532;DHT22;15738;44.860;10.066;2023-08-12T13:00:09;31.40;99.90
28532;DHT22;15738;44.860;10.066;2023-08-12T13:02:57;31.40;99.90
28532;DHT22;15738;44.860;10.066;2023-08-12T13:05:43;31.50;99.90
28532;DHT22;15738;44.860;10.066;2023-08-12T13:08:29;31.50;99.90
28532;DHT22;15738;44.860;10.066;2023-08-12T13:11:18;31.70;99.90
28532;DHT22;15738;44.860;10.066;2023-08-12T13:14:04;31.70;99.90
28532;DHT22;15738;44.860;10.066;2023-08-12T13:16:51;31.60;99.90
28532;DHT22;15738;44.860;10.066;2023-08-12T13:19:38;31.60;99.90
28532;DHT22;15738;44.860;10.066;2023-08-12T13:22:24;31.50;99.90
28532;DHT22;15738;44.860;10.066;2023-08-12T13:25:10;31.60;99.90
28532;DHT22;15738;44.860;10.066;2023-08-12T13:27:58;31.70;99.90
28532;DHT22;15738;44.860;10.066;2023-08-12T13:30:45;31.70;99.90
28532;DHT22;15738;44.860;10.066;2023-08-12T13:33:31;31.70;99.90
28532;DHT22;15738;44.860;10.066;2023-08-12T13:36:17;31.80;99.90
28532;DHT22;15738;44.860;10.066;2023-08-12T13:39:04;31.70;99.90
28532;DHT22;15738;44.860;10.066;2023-08-12T13:41:56;31.70;99.90
28532;DHT22;15738;44.860;10.066;2023-08-12T13:44:42;31.60;99.90
28532;DHT22;15738;44.860;10.066;2023-08-12T13:47:29;31.70;99.90
28532;DHT22;15738;44.860;10.066;2023-08-12T13:50:16;31.80;99.90
28532;DHT22;15738;44.860;10.066;2023-08-12T13:53:03;31.20;99.90
28532;DHT22;15738;44.860;10.066;2023-08-12T13:55:50;31.50;99.90
28532;DHT22;15738;44.860;10.066;2023-08-12T13:58:36;31.60;99.90
28532;DHT22;15738;44.860;10.066;2023-08-12T14:01:22;31.70;99.90
28532;DHT22;15738;44.860;10.066;2023-08-12T14:04:09;31.70;99.90
28532;DHT22;15738;44.860;10.066;2023-08-12T14:06:55;31.80;99.90
28532;DHT22;15738;44.860;10.066;2023-08-12T14:09:41;31.90;99.90
28532;DHT22;15738;44.860;10.066;2023-08-12T14:12:28;31.90;99.90
28532;DHT22;15738;44.860;10.066;2023-08-12T14:15:14;31.80;99.90
28532;DHT22;15738;44.860;10.066;2023-08-12T14:18:00;31.80;99.90
28532;DHT22;15738;44.860;10.066;2023-08-12T14:20:46;31.90;99.90
28532;DHT22;15738;44.860;10.066;2023-08-12T14:23:33;32.00;99.90
28532;DHT22;15738;44.860;10.066;2023-08-12T14:26:19;32.00;99.90
28532;DHT22;15738;44.860;10.066;2023-08-12T14:29:05;32.10;99.90
28532;DHT22;15738;44.860;10.066;2023-08-12T14:31:53;32.10;99.90
28532;DHT22;15738;44.860;10.066;2023-08-12T14:34:39;32.00;99.90
28532;DHT22;15738;44.860;10.066;2023-08-12T14:37:25;32.00;99.90
28532;DHT22;15738;44.860;10.066;2023-08-12T14:40:13;32.00;99.90
28532;DHT22;15738;44.860;10.066;2023-08-12T14:43:00;31.90;99.90
28532;DHT22;15738;44.860;10.066;2023-08-12T14:45:46;32.00;99.90
28532;DHT22;15738;44.860;10.066;2023-08-12T14:48:32;31.80;99.90
28532;DHT22;15738;44.860;10.066;2023-08-12T14:51:19;31.90;99.90
28532;DHT22;15738;44.860;10.066;2023-08-12T14:54:05;31.90;99.90
28532;DHT22;15738;44.860;10.066;2023-08-12T14:56:51;31.80;99.90
28532;DHT22;15738;44.860;10.066;2023-08-12T14:59:38;31.80;99.90
28532;DHT22;15738;44.860;10.066;2023-08-12T15:02:24;31.80;99.90
28532;DHT22;15738;44.860;10.066;2023-08-12T15:05:10;31.80;99.90
28532;DHT22;15738;44.860;10.066;2023-08-12T15:07:56;31.80;99.90
28532;DHT22;15738;44.860;10.066;2023-08-12T15:10:43;31.90;99.90
28532;DHT22;15738;44.860;10.066;2023-08-12T15:13:29;32.00;99.90
28532;DHT22;15738;44.860;10.066;2023-08-12T15:16:15;31.90;99.90
28532;DHT22;15738;44.860;10.066;2023-08-12T15:19:01;32.00;99.90
28532;DHT22;15738;44.860;10.066;2023-08-12T15:21:48;32.00;99.90
28532;DHT22;15738;44.860;10.066;2023-08-12T15:24:35;32.00;99.90
28532;DHT22;15738;44.860;10.066;2023-08-12T15:27:21;31.70;99.90
28532;DHT22;15738;44.860;10.066;2023-08-12T15:30:08;31.80;99.90
28532;DHT22;15738;44.860;10.066;2023-08-12T15:32:55;31.50;99.90
28532;DHT22;15738;44.860;10.066;2023-08-12T15:35:42;31.80;99.90
28532;DHT22;15738;44.860;10.066;2023-08-12T15:38:29;31.60;99.90
28532;DHT22;15738;44.860;10.066;2023-08-12T15:41:16;32.20;99.90
28532;DHT22;15738;44.860;10.066;2023-08-12T15:44:02;31.90;99.90
28532;DHT22;15738;44.860;10.066;2023-08-12T15:46:48;31.90;99.90
28532;DHT22;15738;44.860;10.066;2023-08-12T15:49:34;31.70;99.90
28532;DHT22;15738;44.860;10.066;2023-08-12T15:52:20;31.90;99.90
28532;DHT22;15738;44.860;10.066;2023-08-12T15:55:06;31.80;99.90
28532;DHT22;15738;44.860;10.066;2023-08-12T15:57:52;31.80;99.90
28532;DHT22;15738;44.860;10.066;2023-08-12T16:00:39;31.70;99.90
28532;DHT22;15738;44.860;10.066;2023-08-12T16:03:28;31.70;99.90
28532;DHT22;15738;44.860;10.066;2023-08-12T16:06:16;31.60;99.90
28532;DHT22;15738;44.860;10.066;2023-08-12T16:09:02;31.60;99.90
28532;DHT22;15738;44.860;10.066;2023-08-12T16:12:02;31.50;99.90
28532;DHT22;15738;44.860;10.066;2023-08-12T16:14:49;31.50;99.90
28532;DHT22;15738;44.860;10.066;2023-08-12T16:20:22;31.30;99.90
28532;DHT22;15738;44.860;10.066;2023-08-12T16:23:07;31.40;99.90
28532;DHT22;15738;44.860;10.066;2023-08-12T16:25:54;31.60;99.90
28532;DHT22;15738;44.860;10.066;2023-08-12T16:28:40;31.90;99.90
28532;DHT22;15738;44.860;10.066;2023-08-12T16:31:28;31.60;99.90
28532;DHT22;15738;44.860;10.066;2023-08-12T16:34:15;31.80;99.90
28532;DHT22;15738;44.860;10.066;2023-08-12T16:37:01;31.40;99.90
28532;DHT22;15738;44.860;10.066;2023-08-12T16:40:05;31.50;99.90
28532;DHT22;15738;44.860;10.066;2023-08-12T16:42:52;31.50;99.90
28532;DHT22;15738;44.860;10.066;2023-08-12T16:45:39;31.50;99.90
28532;DHT22;15738;44.860;10.066;2023-08-12T16:48:25;31.50;99.90
28532;DHT22;15738;44.860;10.066;2023-08-12T16:51:11;31.50;99.90
28532;DHT22;15738;44.860;10.066;2023-08-12T16:53:57;31.40;99.90
28532;DHT22;15738;44.860;10.066;2023-08-12T16:56:43;31.40;99.90
28532;DHT22;15738;44.860;10.066;2023-08-12T16:59:29;31.30;99.90
28532;DHT22;15738;44.860;10.066;2023-08-12T17:02:14;31.30;99.90
28532;DHT22;15738;44.860;10.066;2023-08-12T17:05:00;31.20;99.90
28532;DHT22;15738;44.860;10.066;2023-08-12T17:07:46;31.20;99.90
28532;DHT22;15738;44.860;10.066;2023-08-12T17:10:32;31.30;99.90
28532;DHT22;15738;44.860;10.066;2023-08-12T17:16:05;31.20;99.90
28532;DHT22;15738;44.860;10.066;2023-08-12T17:18:51;31.20;99.90
28532;DHT22;15738;44.860;10.066;2023-08-12T17:21:37;31.00;99.90
28532;DHT22;15738;44.860;10.066;2023-08-12T17:24:23;31.00;99.90
28532;DHT22;15738;44.860;10.066;2023-08-12T17:27:09;30.90;99.90
28532;DHT22;15738;44.860;10.066;2023-08-12T17:29:55;30.90;99.90
28532;DHT22;15738;44.860;10.066;2023-08-12T17:32:40;30.90;99.90
28532;DHT22;15738;44.860;10.066;2023-08-12T17:35:26;30.90;99.90
28532;DHT22;15738;44.860;10.066;2023-08-12T17:38:12;30.80;99.90
28532;DHT22;15738;44.860;10.066;2023-08-12T17:40:58;30.80;99.90
28532;DHT22;15738;44.860;10.066;2023-08-12T17:43:44;30.80;99.90
28532;DHT22;15738;44.860;10.066;2023-08-12T17:46:32;30.70;99.90
28532;DHT22;15738;44.860;10.066;2023-08-12T17:49:19;30.60;99.90
28532;DHT22;15738;44.860;10.066;2023-08-12T17:52:05;30.50;99.90
28532;DHT22;15738;44.860;10.066;2023-08-12T17:54:50;30.50;99.90
28532;DHT22;15738;44.860;10.066;2023-08-12T17:57:36;30.50;99.90
28532;DHT22;15738;44.860;10.066;2023-08-12T18:00:22;30.50;99.90
28532;DHT22;15738;44.860;10.066;2023-08-12T18:03:08;30.40;99.90
28532;DHT22;15738;44.860;10.066;2023-08-12T18:05:54;30.40;99.90
28532;DHT22;15738;44.860;10.066;2023-08-12T18:08:41;30.30;99.90
28532;DHT22;15738;44.860;10.066;2023-08-12T18:11:26;30.20;99.90
28532;DHT22;15738;44.860;10.066;2023-08-12T18:14:12;30.20;99.90
28532;DHT22;15738;44.860;10.066;2023-08-12T18:17:00;30.20;99.90